Time;durP1;ratioP1;P1;durP2;ratioP2;P2;SDS_P1;SDS_P2;PMS_P1;PMS_P2;Temp;Humidity;BMP_temperature;BMP_pressure;BME280_temperature;BME280_humidity;BME280_pressure;Samples;Min_cycle;Max_cycle;Signal;HPM_P1;HPM_P2
2022/11/08 00:01:31;;;;;;;35.60;13.40;;;;;;;;;;4998708;28;20041;-27
2022/11/08 00:03:58;;;;;;;42.05;14.93;;;;;;;;;;4998315;28;20054;-27
2022/11/08 00:14:39;;;;;;;43.83;12.98;;;;;;;;;;4998887;28;20085;-27
2022/11/08 00:17:05;;;;;;;38.85;13.30;;;;;;;;;;4998362;28;20365;-27
2022/11/08 00:19:32;;;;;;;37.58;13.35;;;;;;;;;;4998597;28;20057;-27
2022/11/08 00:21:58;;;;;;;37.97;12.82;;;;;;;;;;4998226;28;20058;-27
2022/11/08 00:24:24;;;;;;;40.05;12.48;;;;;;;;;;4998227;28;20109;-27
2022/11/08 00:26:50;;;;;;;37.97;11.57;;;;;;;;;;4998758;28;20045;-27
2022/11/08 00:29:16;;;;;;;36.28;12.88;;;;;;;;;;4998150;28;20072;-27
2022/11/08 00:31:43;;;;;;;32.28;12.93;;;;;;;;;;4998009;28;20042;-27
2022/11/08 00:34:09;;;;;;;27.77;10.82;;;;;;;;;;4997946;28;20050;-27
2022/11/08 00:36:35;;;;;;;29.17;10.88;;;;;;;;;;4997948;28;20038;-27
2022/11/08 00:39:01;;;;;;;36.35;12.82;;;;;;;;;;4998218;28;20358;-27
2022/11/08 00:41:28;;;;;;;39.45;12.13;;;;;;;;;;4998199;28;20029;-27
2022/11/08 00:43:54;;;;;;;43.38;12.13;;;;;;;;;;4997842;28;20034;-27
2022/11/08 00:46:20;;;;;;;29.58;11.32;;;;;;;;;;4998131;28;20027;-27
2022/11/08 00:48:46;;;;;;;37.00;13.70;;;;;;;;;;4997751;28;20032;-27
2022/11/08 00:51:12;;;;;;;38.80;12.30;;;;;;;;;;4997667;28;20046;-27
2022/11/08 00:53:39;;;;;;;36.60;12.52;;;;;;;;;;4997224;28;20026;-27
2022/11/08 00:56:06;;;;;;;32.33;12.05;;;;;;;;;;4998196;28;20065;-27
2022/11/08 00:58:32;;;;;;;31.23;12.80;;;;;;;;;;4997640;28;20058;-27
2022/11/08 01:00:59;;;;;;;31.73;10.85;;;;;;;;;;4980883;28;20382;-27
2022/11/08 01:03:25;;;;;;;34.70;12.73;;;;;;;;;;4997636;28;20046;-27
2022/11/08 01:05:52;;;;;;;39.47;12.02;;;;;;;;;;4997743;28;20370;-27
2022/11/08 01:08:19;;;;;;;46.65;16.10;;;;;;;;;;4997434;28;20042;-27
2022/11/08 01:10:46;;;;;;;30.75;11.95;;;;;;;;;;4997637;28;20026;-27
2022/11/08 01:13:13;;;;;;;25.80;10.18;;;;;;;;;;4997504;28;20042;-27
2022/11/08 01:15:40;;;;;;;32.13;11.90;;;;;;;;;;4997755;28;20177;-27
2022/11/08 01:18:07;;;;;;;27.42;11.57;;;;;;;;;;4997513;28;20378;-27
2022/11/08 01:20:33;;;;;;;32.20;13.20;;;;;;;;;;4997206;28;20117;-26
2022/11/08 01:23:00;;;;;;;32.22;10.90;;;;;;;;;;4997102;28;20030;-26
2022/11/08 01:25:26;;;;;;;27.48;10.70;;;;;;;;;;4997108;28;20050;-26
2022/11/08 01:27:52;;;;;;;27.77;13.35;;;;;;;;;;4996996;28;20044;-27
2022/11/08 01:30:18;;;;;;;41.08;11.43;;;;;;;;;;4997292;28;20137;-27
2022/11/08 01:32:44;;;;;;;29.10;11.50;;;;;;;;;;4996883;28;20037;-27
2022/11/08 01:35:10;;;;;;;34.22;12.73;;;;;;;;;;4997369;28;20041;-26
2022/11/08 01:37:36;;;;;;;30.75;12.13;;;;;;;;;;4997103;28;20026;-26
2022/11/08 01:40:03;;;;;;;34.80;12.50;;;;;;;;;;4996746;28;20038;-26
2022/11/08 01:42:31;;;;;;;29.73;10.25;;;;;;;;;;4996961;28;20027;-26
2022/11/08 01:44:58;;;;;;;25.45;11.15;;;;;;;;;;4996662;28;20022;-26
2022/11/08 01:47:24;;;;;;;28.77;12.75;;;;;;;;;;4997212;28;20417;-27
2022/11/08 01:49:51;;;;;;;36.58;12.88;;;;;;;;;;4996899;28;20032;-26
2022/11/08 01:52:19;;;;;;;35.00;11.93;;;;;;;;;;4996754;28;20409;-26
2022/11/08 01:54:51;;;;;;;31.45;12.18;;;;;;;;;;4996714;28;20034;-27
2022/11/08 01:57:23;;;;;;;26.08;10.40;;;;;;;;;;4996536;28;20037;-26
2022/11/08 01:59:50;;;;;;;25.80;11.68;;;;;;;;;;4996441;28;20076;-27
2022/11/08 02:02:17;;;;;;;36.28;11.55;;;;;;;;;;4996747;28;20026;-26
2022/11/08 02:04:43;;;;;;;30.00;11.38;;;;;;;;;;4995347;28;20469;-26
2022/11/08 02:07:11;;;;;;;33.83;11.20;;;;;;;;;;4996247;28;20030;-26
2022/11/08 02:09:38;;;;;;;30.85;11.70;;;;;;;;;;4996509;28;20030;-26
2022/11/08 02:12:06;;;;;;;19.88;11.30;;;;;;;;;;4996087;28;20053;-26
2022/11/08 02:14:32;;;;;;;28.60;11.48;;;;;;;;;;4996347;28;20041;-26
2022/11/08 02:16:58;;;;;;;22.92;10.30;;;;;;;;;;4996386;28;20026;-26
2022/11/08 02:19:30;;;;;;;24.40;10.00;;;;;;;;;;4996085;28;20105;-26
2022/11/08 02:21:58;;;;;;;26.50;12.32;;;;;;;;;;4996238;28;20035;-27
2022/11/08 02:24:24;;;;;;;29.55;10.85;;;;;;;;;;4996229;28;20034;-26
2022/11/08 02:26:52;;;;;;;23.83;10.43;;;;;;;;;;4978843;28;20425;-26
2022/11/08 02:29:29;;;;;;;24.83;11.60;;;;;;;;;;4995918;28;20030;-26
2022/11/08 02:31:56;;;;;;;29.23;12.23;;;;;;;;;;4996044;28;20085;-26
2022/11/08 02:34:42;;;;;;;34.17;12.82;;;;;;;;;;4996349;28;20072;-26
2022/11/08 02:37:08;;;;;;;27.80;11.73;;;;;;;;;;4982579;28;20042;-26
2022/11/08 02:39:34;;;;;;;23.05;10.23;;;;;;;;;;4996036;28;20049;-26
2022/11/08 02:42:01;;;;;;;41.55;12.50;;;;;;;;;;4995653;28;20057;-26
2022/11/08 02:44:28;;;;;;;30.30;11.30;;;;;;;;;;4995624;28;20045;-27
2022/11/08 02:46:54;;;;;;;38.72;12.02;;;;;;;;;;4995604;28;20034;-27
2022/11/08 02:49:20;;;;;;;25.30;10.40;;;;;;;;;;4995645;28;20034;-26
2022/11/08 02:51:46;;;;;;;26.60;9.82;;;;;;;;;;4995454;28;20465;-26
2022/11/08 02:54:12;;;;;;;31.63;11.23;;;;;;;;;;4995711;28;20022;-27
2022/11/08 02:56:38;;;;;;;24.15;10.38;;;;;;;;;;4995502;28;20041;-26
2022/11/08 02:59:05;;;;;;;31.60;11.65;;;;;;;;;;4995477;28;20034;-27
2022/11/08 03:01:31;;;;;;;30.75;9.65;;;;;;;;;;4995739;28;20027;-27
2022/11/08 03:03:57;;;;;;;29.63;11.23;;;;;;;;;;4995146;28;20491;-27
2022/11/08 03:06:23;;;;;;;27.45;9.93;;;;;;;;;;4995379;28;20053;-26
2022/11/08 03:08:49;;;;;;;36.55;11.75;;;;;;;;;;4995353;28;20026;-26
2022/11/08 03:11:16;;;;;;;24.25;9.90;;;;;;;;;;4995569;28;20026;-27
2022/11/08 03:13:42;;;;;;;27.48;10.27;;;;;;;;;;4995123;28;20030;-26
2022/11/08 03:16:08;;;;;;;21.23;9.00;;;;;;;;;;4995062;28;20026;-27
2022/11/08 03:18:34;;;;;;;23.40;9.07;;;;;;;;;;4995505;28;20088;-27
2022/11/08 03:21:00;;;;;;;25.98;9.55;;;;;;;;;;4995497;28;20050;-26
2022/11/08 03:23:27;;;;;;;22.50;8.02;;;;;;;;;;4995145;28;20084;-26
2022/11/08 03:25:53;;;;;;;21.08;9.88;;;;;;;;;;4995115;28;20039;-26
2022/11/08 03:28:19;;;;;;;17.50;9.63;;;;;;;;;;4995086;28;20034;-26
2022/11/08 03:30:45;;;;;;;23.25;10.10;;;;;;;;;;4995415;28;20098;-26
2022/11/08 03:33:11;;;;;;;24.48;10.40;;;;;;;;;;4995334;28;20027;-27
2022/11/08 03:35:37;;;;;;;31.15;12.23;;;;;;;;;;4995021;28;20041;-26
2022/11/08 03:38:04;;;;;;;28.48;11.45;;;;;;;;;;4995310;28;20353;-26
2022/11/08 03:40:30;;;;;;;36.30;10.77;;;;;;;;;;4995066;28;20026;-27
2022/11/08 03:42:56;;;;;;;24.58;10.65;;;;;;;;;;4995254;28;20034;-26
2022/11/08 03:45:22;;;;;;;29.20;11.15;;;;;;;;;;4995018;28;20034;-26
2022/11/08 03:47:48;;;;;;;26.67;9.82;;;;;;;;;;4995253;28;20034;-26
2022/11/08 03:50:16;;;;;;;31.08;12.95;;;;;;;;;;4995210;28;20105;-27
2022/11/08 03:52:49;;;;;;;26.95;11.32;;;;;;;;;;4994913;28;20034;-27
2022/11/08 03:55:16;;;;;;;27.48;10.27;;;;;;;;;;4995101;28;20093;-27
2022/11/08 03:57:43;;;;;;;31.33;10.15;;;;;;;;;;4994927;28;20036;-27
2022/11/08 04:00:10;;;;;;;24.10;9.48;;;;;;;;;;4994881;28;20495;-28
2022/11/08 04:02:36;;;;;;;24.45;10.63;;;;;;;;;;4994795;28;20027;-27
2022/11/08 04:05:04;;;;;;;24.63;9.82;;;;;;;;;;4995379;28;20046;-27
2022/11/08 04:07:30;;;;;;;25.02;10.25;;;;;;;;;;4995088;28;20057;-26
2022/11/08 04:09:56;;;;;;;18.23;9.82;;;;;;;;;;4994819;28;20046;-27
2022/11/08 04:15:19;;;;;;;23.05;10.30;;;;;;;;;;4994894;28;20065;-28
2022/11/08 04:23:17;;;;;;;21.20;9.90;;;;;;;;;;4994957;28;20484;-27
2022/11/08 04:25:44;;;;;;;24.98;9.82;;;;;;;;;;4994644;28;20062;-28
2022/11/08 04:28:11;;;;;;;21.42;9.50;;;;;;;;;;4997349;28;20065;-28
2022/11/08 04:30:37;;;;;;;25.63;10.80;;;;;;;;;;4998170;28;20461;-27
2022/11/08 04:33:04;;;;;;;24.25;10.60;;;;;;;;;;4980893;28;20026;-27
2022/11/08 04:35:31;;;;;;;26.30;11.88;;;;;;;;;;4997993;28;20034;-27
2022/11/08 04:37:58;;;;;;;27.38;10.13;;;;;;;;;;4998278;28;20022;-26
2022/11/08 04:40:24;;;;;;;22.05;9.60;;;;;;;;;;4997965;28;20445;-26
2022/11/08 04:42:51;;;;;;;22.23;9.95;;;;;;;;;;4997883;28;20027;-27
2022/11/08 04:45:17;;;;;;;23.35;10.23;;;;;;;;;;4998383;28;20041;-27
2022/11/08 04:47:46;;;;;;;25.70;10.00;;;;;;;;;;4998065;28;20069;-27
2022/11/08 04:50:13;;;;;;;19.77;9.75;;;;;;;;;;4998018;28;20469;-26
2022/11/08 04:52:39;;;;;;;23.15;9.60;;;;;;;;;;4980974;28;20034;-27
2022/11/08 04:55:06;;;;;;;20.63;9.45;;;;;;;;;;4997581;28;20030;-27
2022/11/08 04:57:32;;;;;;;31.17;12.32;;;;;;;;;;4997583;28;20061;-27
2022/11/08 04:59:58;;;;;;;28.55;12.02;;;;;;;;;;4997809;28;20058;-27
2022/11/08 05:02:24;;;;;;;20.33;12.02;;;;;;;;;;4997394;28;20022;-26
2022/11/08 05:04:50;;;;;;;17.05;8.77;;;;;;;;;;4997303;28;20046;-27
2022/11/08 05:07:16;;;;;;;22.00;10.02;;;;;;;;;;4997664;28;20038;-27
2022/11/08 05:09:42;;;;;;;17.13;8.90;;;;;;;;;;4997408;28;20093;-27
2022/11/08 05:12:09;;;;;;;19.73;9.18;;;;;;;;;;4997743;28;20110;-27
2022/11/08 05:14:35;;;;;;;29.33;10.52;;;;;;;;;;4997547;28;20069;-27
2022/11/08 05:17:01;;;;;;;28.83;10.43;;;;;;;;;;4997524;28;20034;-27
2022/11/08 05:24:56;;;;;;;20.92;8.77;;;;;;;;;;4997164;28;20040;-27
2022/11/08 05:27:22;;;;;;;17.63;9.30;;;;;;;;;;4996949;28;20042;-27
2022/11/08 05:29:49;;;;;;;19.10;9.68;;;;;;;;;;4996947;28;20030;-27
2022/11/08 05:32:15;;;;;;;20.90;9.30;;;;;;;;;;4996872;28;20030;-27
2022/11/08 05:34:41;;;;;;;17.45;8.90;;;;;;;;;;4996941;28;20060;-26
2022/11/08 05:37:07;;;;;;;20.77;9.00;;;;;;;;;;4996819;28;20022;-26
2022/11/08 05:39:33;;;;;;;22.25;10.38;;;;;;;;;;4996738;28;20022;-27
2022/11/08 05:41:59;;;;;;;22.02;9.15;;;;;;;;;;4997453;28;20034;-27
2022/11/08 05:44:25;;;;;;;21.67;9.18;;;;;;;;;;4996753;28;20033;-27
2022/11/08 05:46:51;;;;;;;22.45;9.52;;;;;;;;;;4996709;28;20042;-27
2022/11/08 05:49:18;;;;;;;25.77;8.90;;;;;;;;;;4996906;28;20034;-27
2022/11/08 05:51:44;;;;;;;16.15;8.48;;;;;;;;;;4996496;28;20038;-27
2022/11/08 05:54:11;;;;;;;23.55;10.00;;;;;;;;;;4996479;28;20363;-27
2022/11/08 05:56:38;;;;;;;23.98;10.35;;;;;;;;;;4996487;28;20033;-27
2022/11/08 05:59:04;;;;;;;18.45;8.70;;;;;;;;;;4996398;28;20113;-27
2022/11/08 06:01:31;;;;;;;17.05;8.38;;;;;;;;;;4996644;28;20081;-27
2022/11/08 06:03:57;;;;;;;23.35;10.13;;;;;;;;;;4996074;28;20113;-27
2022/11/08 06:06:23;;;;;;;19.30;8.88;;;;;;;;;;4996216;28;20457;-27
2022/11/08 06:08:50;;;;;;;24.52;10.20;;;;;;;;;;4996170;28;20109;-27
2022/11/08 06:11:18;;;;;;;23.65;8.10;;;;;;;;;;4996406;28;20346;-27
2022/11/08 06:13:44;;;;;;;16.85;9.93;;;;;;;;;;4996249;28;20026;-27
2022/11/08 06:16:12;;;;;;;31.27;9.93;;;;;;;;;;4979588;28;20026;-27
2022/11/08 06:18:39;;;;;;;23.27;10.02;;;;;;;;;;4996137;28;20018;-27
2022/11/08 06:21:06;;;;;;;16.17;7.75;;;;;;;;;;4996071;28;20030;-27
2022/11/08 06:23:32;;;;;;;20.17;9.63;;;;;;;;;;4996019;28;20018;-27
2022/11/08 06:25:59;;;;;;;23.80;8.52;;;;;;;;;;4995927;28;20040;-27
2022/11/08 06:28:26;;;;;;;22.08;7.95;;;;;;;;;;4995910;28;20117;-27
2022/11/08 06:30:52;;;;;;;19.88;8.57;;;;;;;;;;4979335;28;20362;-27
2022/11/08 06:33:19;;;;;;;26.48;9.75;;;;;;;;;;4995678;28;20457;-27
2022/11/08 06:35:45;;;;;;;20.17;9.43;;;;;;;;;;4995935;28;20100;-26
2022/11/08 06:38:11;;;;;;;20.77;8.63;;;;;;;;;;4995974;28;20053;-27
2022/11/08 06:40:38;;;;;;;19.20;8.55;;;;;;;;;;4995620;28;20088;-27
2022/11/08 06:43:04;;;;;;;22.63;9.35;;;;;;;;;;4995854;28;20030;-27
2022/11/08 06:45:31;;;;;;;37.35;12.10;;;;;;;;;;4995512;28;20049;-27
2022/11/08 06:47:58;;;;;;;84.43;24.50;;;;;;;;;;4995821;28;20030;-27
2022/11/08 06:50:24;;;;;;;279.73;67.90;;;;;;;;;;4995296;28;20041;-27
2022/11/08 06:52:58;;;;;;;167.82;43.92;;;;;;;;;;4995398;28;20037;-27
2022/11/08 06:55:24;;;;;;;60.15;16.70;;;;;;;;;;4995618;28;20026;-27
2022/11/08 06:57:50;;;;;;;159.18;38.83;;;;;;;;;;4995774;28;20026;-27
2022/11/08 07:00:17;;;;;;;190.07;48.55;;;;;;;;;;4995458;28;20042;-27
2022/11/08 07:02:43;;;;;;;140.30;36.83;;;;;;;;;;4995134;28;20030;-27
2022/11/08 07:05:10;;;;;;;99.03;27.17;;;;;;;;;;4995370;28;20353;-28
2022/11/08 07:07:37;;;;;;;71.57;20.60;;;;;;;;;;4995082;28;20358;-27
2022/11/08 07:10:03;;;;;;;40.83;11.25;;;;;;;;;;4995334;28;20342;-27
2022/11/08 07:12:29;;;;;;;58.50;19.38;;;;;;;;;;4994973;28;20034;-27
2022/11/08 07:14:56;;;;;;;108.05;24.98;;;;;;;;;;4994614;28;20030;-27
2022/11/08 07:17:22;;;;;;;140.85;36.38;;;;;;;;;;4994633;28;20352;-27
2022/11/08 07:19:48;;;;;;;466.58;115.85;;;;;;;;;;4994654;28;20026;-26
2022/11/08 07:22:14;;;;;;;295.52;69.90;;;;;;;;;;4995556;28;20026;-26
2022/11/08 07:24:40;;;;;;;311.20;75.20;;;;;;;;;;4994934;28;20030;-26
2022/11/08 07:27:06;;;;;;;508.00;128.38;;;;;;;;;;4994838;28;20030;-26
2022/11/08 07:29:32;;;;;;;353.70;97.82;;;;;;;;;;4994840;28;20034;-26
2022/11/08 07:31:59;;;;;;;242.45;53.55;;;;;;;;;;4995328;28;20054;-26
2022/11/08 07:34:25;;;;;;;252.35;65.78;;;;;;;;;;4995297;28;20030;-26
2022/11/08 07:36:51;;;;;;;182.70;50.00;;;;;;;;;;4995097;28;20034;-26
2022/11/08 07:39:18;;;;;;;90.72;28.45;;;;;;;;;;4994800;28;20023;-27
2022/11/08 07:41:44;;;;;;;75.07;23.63;;;;;;;;;;4994580;28;20161;-26
2022/11/08 07:44:10;;;;;;;121.32;35.80;;;;;;;;;;4994749;28;20025;-26
2022/11/08 07:46:36;;;;;;;81.93;25.63;;;;;;;;;;4994946;28;20026;-27
2022/11/08 07:49:02;;;;;;;72.30;23.55;;;;;;;;;;4994647;28;20050;-26
2022/11/08 07:51:28;;;;;;;93.47;31.65;;;;;;;;;;4994602;28;20034;-26
2022/11/08 07:53:54;;;;;;;68.70;20.35;;;;;;;;;;4994571;28;20054;-26
2022/11/08 07:56:21;;;;;;;75.18;19.83;;;;;;;;;;4994651;28;20027;-26
2022/11/08 07:58:47;;;;;;;77.47;21.90;;;;;;;;;;4994554;28;20469;-26
2022/11/08 08:01:13;;;;;;;61.38;19.33;;;;;;;;;;4994620;28;20049;-26
2022/11/08 08:03:39;;;;;;;47.92;16.05;;;;;;;;;;4997679;28;20042;-27
2022/11/08 08:06:05;;;;;;;63.45;15.70;;;;;;;;;;4998461;28;20026;-27
2022/11/08 08:08:31;;;;;;;51.22;14.98;;;;;;;;;;4981596;28;20097;-26
2022/11/08 08:10:58;;;;;;;43.20;12.88;;;;;;;;;;4998146;28;20418;-26
2022/11/08 08:13:25;;;;;;;50.58;14.45;;;;;;;;;;4997965;28;20026;-27
2022/11/08 08:15:51;;;;;;;40.90;13.20;;;;;;;;;;4998028;28;20037;-27
2022/11/08 08:18:19;;;;;;;48.47;17.60;;;;;;;;;;4998367;28;20157;-27
2022/11/08 08:20:46;;;;;;;51.33;14.82;;;;;;;;;;4998777;28;20033;-27
2022/11/08 08:23:12;;;;;;;48.65;15.73;;;;;;;;;;4997934;28;20473;-27
2022/11/08 08:25:38;;;;;;;38.22;13.18;;;;;;;;;;4998336;28;20037;-27
2022/11/08 08:28:05;;;;;;;48.65;12.10;;;;;;;;;;4998177;28;20050;-27
2022/11/08 08:30:33;;;;;;;60.28;15.98;;;;;;;;;;4998122;28;20034;-27
2022/11/08 08:33:10;;;;;;;51.25;12.93;;;;;;;;;;4997947;28;20097;-27
2022/11/08 08:35:37;;;;;;;65.07;21.08;;;;;;;;;;4997623;28;20459;-27
2022/11/08 08:38:04;;;;;;;48.58;14.95;;;;;;;;;;4997757;28;20061;-27
2022/11/08 08:40:31;;;;;;;65.35;17.67;;;;;;;;;;4998054;28;20023;-27
2022/11/08 08:42:58;;;;;;;62.55;15.50;;;;;;;;;;4997699;28;20102;-27
2022/11/08 08:45:24;;;;;;;57.45;18.50;;;;;;;;;;4997642;28;20038;-27
2022/11/08 08:47:52;;;;;;;62.80;18.33;;;;;;;;;;4997939;28;20034;-27
2022/11/08 08:50:18;;;;;;;77.45;20.08;;;;;;;;;;4997829;28;20036;-26
2022/11/08 08:52:45;;;;;;;74.07;22.60;;;;;;;;;;4997826;28;20026;-26
2022/11/08 08:55:11;;;;;;;80.28;24.00;;;;;;;;;;4997465;28;20088;-27
2022/11/08 08:57:37;;;;;;;61.38;19.98;;;;;;;;;;4997460;28;20022;-27
2022/11/08 09:00:04;;;;;;;57.53;19.48;;;;;;;;;;4997395;28;20026;-27
2022/11/08 09:02:30;;;;;;;81.53;19.55;;;;;;;;;;4997287;28;20069;-27
2022/11/08 09:04:56;;;;;;;57.72;19.33;;;;;;;;;;4997081;28;20046;-26
2022/11/08 09:07:22;;;;;;;60.78;19.90;;;;;;;;;;4997181;28;20045;-26
2022/11/08 09:09:48;;;;;;;67.78;21.00;;;;;;;;;;4997695;28;20091;-27
2022/11/08 09:12:15;;;;;;;74.55;19.90;;;;;;;;;;4997863;28;20494;-26
2022/11/08 09:14:41;;;;;;;57.75;21.83;;;;;;;;;;4996712;28;20373;-27
2022/11/08 09:17:07;;;;;;;71.47;20.83;;;;;;;;;;4997350;28;20065;-27
2022/11/08 09:19:33;;;;;;;46.30;16.08;;;;;;;;;;4997742;28;20029;-27
2022/11/08 09:21:59;;;;;;;67.03;22.80;;;;;;;;;;4997171;28;20057;-27
2022/11/08 09:24:25;;;;;;;66.57;20.30;;;;;;;;;;4996860;28;20465;-27
2022/11/08 09:26:52;;;;;;;63.92;21.73;;;;;;;;;;4996797;28;20052;-27
2022/11/08 09:29:18;;;;;;;73.85;19.20;;;;;;;;;;4996798;28;20033;-27
2022/11/08 09:31:44;;;;;;;58.47;19.42;;;;;;;;;;4979804;28;20041;-27
2022/11/08 09:34:10;;;;;;;60.17;21.35;;;;;;;;;;4996759;28;20034;-27
2022/11/08 09:36:36;;;;;;;62.33;19.80;;;;;;;;;;4996998;28;20057;-27
2022/11/08 09:39:02;;;;;;;65.28;19.45;;;;;;;;;;4996860;28;20041;-27
2022/11/08 09:41:41;;;;;;;61.03;21.98;;;;;;;;;;4997340;28;20026;-27
2022/11/08 09:44:11;;;;;;;67.10;19.98;;;;;;;;;;4996888;28;20034;-27
2022/11/08 09:46:45;;;;;;;75.80;21.63;;;;;;;;;;4996505;28;20100;-26
2022/11/08 09:49:23;;;;;;;68.55;22.42;;;;;;;;;;4979378;28;20155;-26
2022/11/08 09:51:50;;;;;;;67.15;20.17;;;;;;;;;;4996740;28;20070;-26
2022/11/08 09:54:31;;;;;;;71.95;23.00;;;;;;;;;;4996352;28;20030;-26
2022/11/08 09:56:58;;;;;;;71.55;21.55;;;;;;;;;;4996551;28;20034;-27
2022/11/08 09:59:36;;;;;;;58.13;18.90;;;;;;;;;;4996276;28;20085;-27
2022/11/08 10:02:02;;;;;;;65.05;20.63;;;;;;;;;;4996243;28;20076;-27
2022/11/08 10:04:30;;;;;;;65.85;19.95;;;;;;;;;;4996106;28;20128;-27
2022/11/08 10:07:03;;;;;;;68.80;23.10;;;;;;;;;;4996501;28;20049;-27
2022/11/08 10:09:44;;;;;;;73.00;24.05;;;;;;;;;;4996680;28;20101;-27
2022/11/08 10:12:13;;;;;;;68.25;21.48;;;;;;;;;;4996383;28;20373;-27
2022/11/08 10:15:05;;;;;;;75.05;22.00;;;;;;;;;;4996271;28;20389;-27
2022/11/08 10:17:51;;;;;;;64.15;19.73;;;;;;;;;;4993413;28;20106;-27
2022/11/08 10:20:17;;;;;;;63.67;22.50;;;;;;;;;;4996192;28;20034;-27
2022/11/08 10:22:46;;;;;;;58.65;17.73;;;;;;;;;;4995763;28;20479;-27
2022/11/08 10:25:21;;;;;;;63.58;19.80;;;;;;;;;;4995392;28;20093;-27
2022/11/08 10:27:49;;;;;;;78.90;22.88;;;;;;;;;;4996267;28;20091;-27
2022/11/08 10:30:15;;;;;;;64.22;17.92;;;;;;;;;;4996303;28;20030;-27
2022/11/08 10:32:42;;;;;;;60.78;21.15;;;;;;;;;;4996090;28;20161;-27
2022/11/08 10:35:17;;;;;;;65.03;18.27;;;;;;;;;;4995867;28;20109;-27
2022/11/08 10:37:44;;;;;;;48.67;14.98;;;;;;;;;;4978547;28;20035;-27
2022/11/08 10:40:16;;;;;;;45.70;13.95;;;;;;;;;;4995580;28;20394;-27
2022/11/08 10:42:47;;;;;;;39.55;14.60;;;;;;;;;;4978363;28;20038;-27
2022/11/08 10:45:13;;;;;;;48.40;13.57;;;;;;;;;;4995785;28;20038;-26
2022/11/08 10:47:40;;;;;;;46.97;14.35;;;;;;;;;;4995662;28;20026;-27
2022/11/08 10:50:26;;;;;;;60.92;15.13;;;;;;;;;;4996137;28;20050;-27
2022/11/08 10:53:00;;;;;;;44.15;14.35;;;;;;;;;;4994767;28;20046;-27
2022/11/08 10:55:29;;;;;;;41.08;12.38;;;;;;;;;;4995199;28;20092;-27
2022/11/08 10:57:56;;;;;;;44.08;14.55;;;;;;;;;;4995836;28;20019;-27
2022/11/08 11:00:22;;;;;;;59.47;16.55;;;;;;;;;;4995605;28;20105;-26
2022/11/08 11:02:51;;;;;;;38.08;13.27;;;;;;;;;;4995283;28;20037;-26
2022/11/08 11:05:17;;;;;;;39.85;14.00;;;;;;;;;;4995539;28;20121;-27
2022/11/08 11:07:57;;;;;;;47.28;13.57;;;;;;;;;;4995139;28;20062;-26
2022/11/08 11:10:34;;;;;;;55.70;16.38;;;;;;;;;;4995487;28;20080;-28
2022/11/08 11:13:10;;;;;;;40.30;13.35;;;;;;;;;;4994985;28;20036;-27
2022/11/08 11:15:46;;;;;;;50.10;15.68;;;;;;;;;;4994995;28;20474;-27
2022/11/08 11:18:22;;;;;;;41.38;13.05;;;;;;;;;;4995430;28;20100;-27
2022/11/08 11:21:02;;;;;;;34.45;13.02;;;;;;;;;;4995261;28;20417;-27
2022/11/08 11:23:47;;;;;;;36.15;14.00;;;;;;;;;;4995197;28;20026;-27
2022/11/08 11:26:28;;;;;;;47.25;15.63;;;;;;;;;;4995532;28;20041;-27
2022/11/08 11:29:03;;;;;;;47.80;15.50;;;;;;;;;;4995077;28;20501;-27
2022/11/08 11:31:33;;;;;;;49.42;14.10;;;;;;;;;;4995087;28;20030;-27
2022/11/08 11:34:16;;;;;;;47.15;14.48;;;;;;;;;;4994709;28;20113;-27
2022/11/08 11:36:44;;;;;;;36.55;15.98;;;;;;;;;;4997434;28;20026;-27
2022/11/08 11:39:21;;;;;;;44.13;15.13;;;;;;;;;;4998926;28;20026;-27
2022/11/08 11:41:48;;;;;;;39.75;14.90;;;;;;;;;;4999058;28;20063;-27
2022/11/08 11:44:19;;;;;;;56.78;16.65;;;;;;;;;;4999026;28;20023;-27
2022/11/08 11:46:59;;;;;;;48.88;15.02;;;;;;;;;;4998991;28;20088;-27
2022/11/08 11:49:28;;;;;;;114.57;35.80;;;;;;;;;;4999107;28;20031;-27
2022/11/08 11:51:54;;;;;;;203.88;58.38;;;;;;;;;;4998524;28;20094;-27
2022/11/08 11:54:22;;;;;;;219.52;64.95;;;;;;;;;;4998603;28;20563;-27
2022/11/08 11:56:55;;;;;;;163.35;51.53;;;;;;;;;;4998981;28;20365;-27
2022/11/08 11:59:44;;;;;;;190.35;61.90;;;;;;;;;;4998897;28;20022;-27
2022/11/08 12:02:22;;;;;;;166.57;54.20;;;;;;;;;;4998537;28;20026;-27
2022/11/08 12:05:04;;;;;;;77.95;28.45;;;;;;;;;;4981166;28;20478;-26
2022/11/08 12:07:34;;;;;;;73.95;21.88;;;;;;;;;;4998738;28;20045;-26
2022/11/08 12:10:03;;;;;;;55.53;18.25;;;;;;;;;;4998679;28;20377;-27
2022/11/08 12:12:44;;;;;;;53.33;16.40;;;;;;;;;;4998211;28;20488;-26
2022/11/08 12:15:29;;;;;;;57.47;17.38;;;;;;;;;;4998405;28;20045;-26
2022/11/08 12:17:55;;;;;;;47.80;15.70;;;;;;;;;;4998992;28;20183;-27
2022/11/08 12:20:21;;;;;;;53.33;16.00;;;;;;;;;;4998084;28;20065;-27
2022/11/08 12:22:47;;;;;;;62.90;17.38;;;;;;;;;;4998232;28;20022;-26
2022/11/08 12:25:22;;;;;;;49.22;17.27;;;;;;;;;;4998283;28;20069;-27
2022/11/08 12:28:11;;;;;;;59.83;18.27;;;;;;;;;;4998290;28;20034;-26
2022/11/08 12:30:40;;;;;;;52.38;15.05;;;;;;;;;;4988640;28;20053;-26
2022/11/08 12:33:07;;;;;;;60.78;17.38;;;;;;;;;;4997995;28;20034;-26
2022/11/08 12:35:51;;;;;;;72.53;22.38;;;;;;;;;;4997948;28;20046;-26
2022/11/08 12:38:30;;;;;;;48.72;17.42;;;;;;;;;;4998118;28;20434;-26
2022/11/08 12:41:10;;;;;;;48.00;16.75;;;;;;;;;;4997869;28;20369;-27
2022/11/08 12:43:48;;;;;;;56.40;17.23;;;;;;;;;;4997710;28;20026;-26
2022/11/08 12:46:17;;;;;;;56.80;16.48;;;;;;;;;;4998230;28;20026;-26
2022/11/08 12:49:02;;;;;;;57.38;18.13;;;;;;;;;;4996751;28;20041;-27
2022/11/08 12:51:35;;;;;;;51.95;16.17;;;;;;;;;;4998110;28;20107;-26
2022/11/08 12:54:27;;;;;;;56.97;17.98;;;;;;;;;;4997592;28;20039;-27
2022/11/08 12:56:55;;;;;;;59.53;15.20;;;;;;;;;;4994003;28;20112;-27
2022/11/08 12:59:27;;;;;;;59.05;15.85;;;;;;;;;;4997795;28;20373;-27
2022/11/08 13:01:54;;;;;;;43.13;15.75;;;;;;;;;;4997329;28;20117;-27
2022/11/08 13:04:26;;;;;;;44.95;15.77;;;;;;;;;;4997602;28;20054;-27
2022/11/08 13:06:52;;;;;;;53.10;15.65;;;;;;;;;;4997207;28;20033;-27
2022/11/08 13:09:19;;;;;;;41.85;15.50;;;;;;;;;;4997248;28;20026;-27
2022/11/08 13:11:49;;;;;;;51.05;14.15;;;;;;;;;;4997103;28;20070;-27
2022/11/08 13:14:16;;;;;;;53.90;13.67;;;;;;;;;;4997367;28;20038;-27
2022/11/08 13:17:02;;;;;;;50.65;15.32;;;;;;;;;;4997143;28;20059;-27
2022/11/08 13:19:29;;;;;;;52.58;14.65;;;;;;;;;;4996670;28;20037;-27
2022/11/08 13:21:56;;;;;;;51.08;16.33;;;;;;;;;;4996958;28;20034;-27
2022/11/08 13:24:22;;;;;;;44.55;13.38;;;;;;;;;;4997059;28;20053;-27
2022/11/08 13:26:48;;;;;;;62.47;14.68;;;;;;;;;;4996979;28;20026;-27
2022/11/08 13:29:18;;;;;;;49.33;13.60;;;;;;;;;;4996870;28;20030;-27
2022/11/08 13:31:44;;;;;;;58.75;13.55;;;;;;;;;;4996835;28;20037;-27
2022/11/08 13:34:33;;;;;;;37.40;12.80;;;;;;;;;;4997321;28;20041;-27
2022/11/08 13:37:22;;;;;;;55.13;15.98;;;;;;;;;;4986753;28;20474;-27
2022/11/08 13:39:48;;;;;;;62.50;14.60;;;;;;;;;;4996740;28;20102;-27
2022/11/08 13:42:17;;;;;;;58.47;17.25;;;;;;;;;;4996518;28;20057;-27
2022/11/08 13:44:58;;;;;;;40.58;16.27;;;;;;;;;;4997107;28;20030;-27
2022/11/08 13:47:47;;;;;;;45.53;15.05;;;;;;;;;;4996509;28;20038;-27
2022/11/08 13:50:29;;;;;;;38.38;14.65;;;;;;;;;;4984180;28;20380;-27
2022/11/08 13:53:08;;;;;;;57.70;13.02;;;;;;;;;;4996314;28;20583;-27
2022/11/08 13:55:43;;;;;;;60.67;15.07;;;;;;;;;;4996188;28;20125;-27
2022/11/08 13:58:38;;;;;;;53.83;14.93;;;;;;;;;;4996547;28;20361;-27
2022/11/08 14:01:09;;;;;;;65.15;15.30;;;;;;;;;;4979924;28;20046;-27
2022/11/08 14:03:35;;;;;;;59.25;15.73;;;;;;;;;;4995801;28;20539;-27
2022/11/08 14:06:01;;;;;;;58.78;14.55;;;;;;;;;;4996061;28;20054;-27
2022/11/08 14:08:28;;;;;;;51.35;16.10;;;;;;;;;;4996868;28;20042;-27
2022/11/08 14:11:04;;;;;;;56.63;15.10;;;;;;;;;;4996631;28;20045;-28
2022/11/08 14:13:57;;;;;;;51.50;16.30;;;;;;;;;;4995906;28;20543;-27
2022/11/08 14:16:25;;;;;;;68.40;15.65;;;;;;;;;;4996150;28;20034;-27
2022/11/08 14:18:51;;;;;;;46.20;15.43;;;;;;;;;;4995966;28;20035;-27
2022/11/08 14:21:18;;;;;;;43.20;13.23;;;;;;;;;;4996352;28;20022;-27
2022/11/08 14:23:46;;;;;;;66.40;18.58;;;;;;;;;;4995896;28;20041;-27
2022/11/08 14:26:15;;;;;;;47.58;16.77;;;;;;;;;;4979260;28;20062;-27
2022/11/08 14:28:45;;;;;;;66.80;16.45;;;;;;;;;;4996229;28;20030;-27
2022/11/08 14:31:31;;;;;;;55.53;16.50;;;;;;;;;;4995923;28;20038;-27
2022/11/08 14:33:58;;;;;;;56.70;17.27;;;;;;;;;;4995817;28;20033;-27
2022/11/08 14:36:25;;;;;;;45.85;17.85;;;;;;;;;;4996045;28;20030;-27
2022/11/08 14:39:10;;;;;;;63.88;15.45;;;;;;;;;;4996093;28;20033;-27
2022/11/08 14:41:36;;;;;;;44.42;14.35;;;;;;;;;;4995666;28;20034;-27
2022/11/08 14:44:03;;;;;;;51.63;18.05;;;;;;;;;;4995661;28;20065;-27
2022/11/08 14:46:29;;;;;;;51.97;16.73;;;;;;;;;;4995657;28;20026;-27
2022/11/08 14:48:56;;;;;;;46.38;16.05;;;;;;;;;;4995893;28;20069;-27
2022/11/08 14:51:23;;;;;;;50.85;18.70;;;;;;;;;;4995567;28;20092;-27